createdAt,value
2019-05-23T00:01:30.989Z,98391.83
2019-05-23T00:04:31.929Z,98396.80
2019-05-23T00:07:27.430Z,98402.47
2019-05-23T00:10:26.742Z,98407.33
2019-05-23T00:13:04.952Z,98411.02
2019-05-23T00:15:43.030Z,98415.28
2019-05-23T00:18:21.299Z,98415.13
2019-05-23T00:20:55.309Z,98419.98
2019-05-23T00:23:29.518Z,98413.89
2019-05-23T00:26:03.877Z,98416.88
2019-05-23T00:28:38.104Z,98417.09
2019-05-23T00:31:34.480Z,98427.91
2019-05-23T00:34:11.746Z,98430.93
2019-05-23T00:36:46.937Z,98434.11
2019-05-23T00:39:21.113Z,98433.33
2019-05-23T00:41:57.366Z,98434.22
2019-05-23T00:44:32.634Z,98444.45
2019-05-23T00:47:08.778Z,98449.82
2019-05-23T00:49:44.443Z,98450.38
2019-05-23T00:52:18.688Z,98449.78
2019-05-23T00:54:53.514Z,98449.77
2019-05-23T00:57:29.200Z,98446.84
2019-05-23T01:00:03.687Z,98461.30
2019-05-23T01:02:39.020Z,98478.00
2019-05-23T01:05:15.174Z,98478.72
2019-05-23T01:07:51.170Z,98480.54
2019-05-23T01:10:27.663Z,98480.82
2019-05-23T01:13:03.441Z,98488.08
2019-05-23T01:15:38.784Z,98497.37
2019-05-23T01:18:13.710Z,98489.64
2019-05-23T01:21:05.278Z,98494.86
2019-05-23T01:23:44.049Z,98497.33
2019-05-23T01:26:19.545Z,98499.97
2019-05-23T01:28:54.023Z,98504.69
2019-05-23T01:31:33.950Z,98511.20
2019-05-23T01:34:09.954Z,98514.78
2019-05-23T01:36:44.489Z,98513.70
2019-05-23T01:39:20.393Z,98515.84
2019-05-23T01:41:54.733Z,98526.50
2019-05-23T01:44:29.899Z,98531.36
2019-05-23T01:47:04.683Z,98541.61
2019-05-23T01:49:40.875Z,98541.09
2019-05-23T01:52:17.388Z,98542.61
2019-05-23T01:54:51.862Z,98544.52
2019-05-23T01:57:27.080Z,98551.05
2019-05-23T02:00:10.323Z,98547.20
2019-05-23T02:02:38.993Z,98544.73
2019-05-23T02:05:14.693Z,98541.91
2019-05-23T02:07:49.367Z,98551.09
2019-05-23T02:10:24.005Z,98556.80
2019-05-23T02:12:58.630Z,98557.32
2019-05-23T02:15:33.802Z,98563.05
2019-05-23T02:18:08.539Z,98564.52
2019-05-23T02:20:43.361Z,98559.33
2019-05-23T02:23:18.870Z,98564.12
2019-05-23T02:25:54.503Z,98564.08
2019-05-23T02:28:30.901Z,98554.92
2019-05-23T02:31:06.199Z,98558.93
2019-05-23T02:33:41.065Z,98561.45
2019-05-23T02:36:15.805Z,98565.94
2019-05-23T02:39:09.726Z,98567.87
2019-05-23T02:42:01.951Z,98570.23
2019-05-23T02:44:38.231Z,98575.28
2019-05-23T02:47:26.975Z,98572.77
2019-05-23T02:50:03.240Z,98574.58
2019-05-23T02:52:57.251Z,98572.62
2019-05-23T02:55:39.053Z,98571.86
2019-05-23T02:58:32.365Z,98581.92
2019-05-23T03:01:37.825Z,98583.44
2019-05-23T03:04:19.407Z,98593.44
2019-05-23T03:06:54.942Z,98580.55
2019-05-23T03:09:32.207Z,98578.66
2019-05-23T03:12:09.818Z,98571.25
2019-05-23T03:14:46.514Z,98571.41
2019-05-23T03:17:25.279Z,98560.67
2019-05-23T03:20:06.298Z,98557.03
2019-05-23T03:22:46.229Z,98569.33
2019-05-23T03:25:57.944Z,98568.03
2019-05-23T03:28:34.802Z,98560.69
2019-05-23T03:31:28.566Z,98569.45
2019-05-23T03:33:52.716Z,98569.56
2019-05-23T03:36:29.967Z,98561.59
2019-05-23T03:39:19.174Z,98560.36
2019-05-23T03:42:08.557Z,98575.84
2019-05-23T03:45:05.344Z,98579.91
2019-05-23T03:47:46.516Z,98594.06
2019-05-23T03:50:31.607Z,98601.10
2019-05-23T03:53:12.046Z,98604.28
2019-05-23T03:55:50.860Z,98607.09
2019-05-23T03:58:33.470Z,98612.83
2019-05-23T04:01:21.406Z,98614.89
2019-05-23T04:04:11.546Z,98616.36
2019-05-23T04:06:56.150Z,98608.22
2019-05-23T04:09:34.540Z,98611.60
2019-05-23T04:12:10.432Z,98611.11
2019-05-23T04:14:45.006Z,98613.33
2019-05-23T04:17:19.000Z,98599.42
2019-05-23T04:19:52.887Z,98599.46
2019-05-23T04:22:28.184Z,98607.73
2019-05-23T04:25:02.821Z,98607.77
2019-05-23T04:27:43.843Z,98610.80
2019-05-23T04:30:19.930Z,98605.36
2019-05-23T04:32:58.979Z,98613.33
2019-05-23T04:35:40.602Z,98616.36
2019-05-23T04:38:36.952Z,98623.25
2019-05-23T04:41:19.844Z,98621.37
2019-05-23T04:43:57.127Z,98614.30
2019-05-23T04:46:47.058Z,98608.56
2019-05-23T04:49:24.282Z,98601.98
2019-05-23T04:52:06.489Z,98598.94
2019-05-23T04:54:44.197Z,98597.87
2019-05-23T04:57:23.224Z,98593.22
2019-05-23T05:00:14.233Z,98598.72
2019-05-23T05:03:09.719Z,98598.98
2019-05-23T05:05:52.984Z,98605.33
2019-05-23T05:08:43.532Z,98602.56
2019-05-23T05:11:24.914Z,98600.70
2019-05-23T05:14:09.481Z,98605.08
2019-05-23T05:16:59.193Z,98602.05
2019-05-23T05:19:49.991Z,98601.23
2019-05-23T05:22:25.517Z,98600.95
2019-05-23T05:25:05.125Z,98599.30
2019-05-23T05:28:03.717Z,98597.41
2019-05-23T05:30:40.018Z,98594.39
2019-05-23T05:33:17.481Z,98598.80
2019-05-23T05:35:59.470Z,98601.30
2019-05-23T05:38:36.325Z,98591.67
2019-05-23T05:41:12.748Z,98596.89
2019-05-23T05:43:47.766Z,98585.36
2019-05-23T05:46:23.331Z,98588.36
2019-05-23T05:49:00.418Z,98589.73
2019-05-23T05:51:36.169Z,98582.34
2019-05-23T05:54:13.755Z,98583.44
2019-05-23T05:57:01.275Z,98587.56
2019-05-23T05:59:41.283Z,98577.39
2019-05-23T06:02:21.214Z,98573.00
2019-05-23T06:05:00.610Z,98571.62
2019-05-23T06:07:44.571Z,98568.28
2019-05-23T06:10:22.458Z,98569.13
2019-05-23T06:13:00.667Z,98568.03
2019-05-23T06:15:37.434Z,98565.28
2019-05-23T06:18:17.320Z,98560.63
2019-05-23T06:20:54.595Z,98562.81
2019-05-23T06:23:37.234Z,98560.87
2019-05-23T06:26:15.598Z,98561.16
2019-05-23T06:28:57.319Z,98552.64
2019-05-23T06:31:37.568Z,98555.39
2019-05-23T06:34:15.573Z,98552.64
2019-05-23T06:36:54.594Z,98544.13
2019-05-23T06:39:33.310Z,98547.40
2019-05-23T06:42:22.993Z,98533.66
2019-05-23T06:45:00.627Z,98540.49
2019-05-23T06:47:40.890Z,98541.89
2019-05-23T06:50:21.693Z,98534.97
2019-05-23T06:53:02.889Z,98533.84
2019-05-23T06:55:43.004Z,98524.77
2019-05-23T06:58:21.025Z,98523.39
2019-05-23T07:00:59.665Z,98516.82
2019-05-23T07:03:50.415Z,98511.33
2019-05-23T07:06:28.780Z,98510.24
2019-05-23T07:09:11.353Z,98504.75
2019-05-23T07:11:45.950Z,98500.63
2019-05-23T07:14:25.933Z,98494.56
2019-05-23T07:17:03.175Z,98488.78
2019-05-23T07:19:41.040Z,98476.41
2019-05-23T07:22:19.651Z,98472.20
2019-05-23T07:24:58.823Z,98469.94
2019-05-23T07:27:38.968Z,98470.23
2019-05-23T07:30:21.167Z,98456.49
2019-05-23T07:32:59.816Z,98457.36
2019-05-23T07:35:38.438Z,98456.52
2019-05-23T07:38:22.452Z,98448.81
2019-05-23T07:40:59.350Z,98446.30
2019-05-23T07:43:37.994Z,98447.44
2019-05-23T07:46:17.198Z,98443.63
2019-05-23T07:48:55.211Z,98440.89
2019-05-23T07:51:39.033Z,98436.81
2019-05-23T07:54:28.396Z,98436.81
2019-05-23T07:57:09.791Z,98428.30
2019-05-23T07:59:47.614Z,98420.05
2019-05-23T08:02:36.477Z,98418.39
2019-05-23T08:05:18.133Z,98412.09
2019-05-23T08:07:59.567Z,98421.98
2019-05-23T08:10:38.284Z,98414.55
2019-05-23T08:13:16.028Z,98406.30
2019-05-23T08:15:56.856Z,98402.74
2019-05-23T08:18:34.454Z,98404.36
2019-05-23T08:21:14.128Z,98400.52
2019-05-23T08:23:51.973Z,98398.05
2019-05-23T08:26:33.419Z,98387.86
2019-05-23T08:29:25.600Z,98388.70
2019-05-23T08:31:50.051Z,98385.91
2019-05-23T08:34:40.527Z,98374.11
2019-05-23T08:37:16.465Z,98370.68
2019-05-23T08:39:57.396Z,98368.69
2019-05-23T08:42:39.794Z,98363.92
2019-05-23T08:45:15.451Z,98371.81
2019-05-23T08:47:53.485Z,98364.77
2019-05-23T08:50:32.763Z,98362.54
2019-05-23T08:53:11.162Z,98356.94
2019-05-23T08:55:56.634Z,98351.48
2019-05-23T08:58:34.110Z,98342.86
2019-05-23T09:01:11.495Z,98347.83
2019-05-23T09:03:53.467Z,98340.89
2019-05-23T09:06:32.216Z,98339.66
2019-05-23T09:09:28.428Z,98334.23
2019-05-23T09:11:52.214Z,98333.00
2019-05-23T09:14:29.506Z,98328.00
2019-05-23T09:17:09.041Z,98329.53
2019-05-23T09:19:47.383Z,98322.89
2019-05-23T09:22:25.353Z,98323.55
2019-05-23T09:25:02.044Z,98322.70
2019-05-23T09:27:44.025Z,98327.52
2019-05-23T09:30:23.488Z,98321.06
2019-05-23T09:32:59.740Z,98317.84
2019-05-23T09:35:38.337Z,98311.27
2019-05-23T09:38:15.282Z,98315.39
2019-05-23T09:40:52.205Z,98308.25
2019-05-23T09:43:29.699Z,98310.17
2019-05-23T09:46:07.678Z,98311.02
2019-05-23T09:48:45.600Z,98306.06
2019-05-23T09:51:28.653Z,98296.16
2019-05-23T09:54:06.182Z,98301.35
2019-05-23T09:56:44.632Z,98299.66
2019-05-23T09:59:22.974Z,98295.27
2019-05-23T10:02:02.403Z,98301.27
2019-05-23T10:04:40.023Z,98292.47
2019-05-23T10:07:17.678Z,98287.00
2019-05-23T10:09:54.805Z,98287.23
2019-05-23T10:12:33.012Z,98285.84
2019-05-23T10:15:13.556Z,98284.71
2019-05-23T10:17:51.165Z,98276.19
2019-05-23T10:20:30.370Z,98264.91
2019-05-23T10:23:07.774Z,98259.69
2019-05-23T10:25:51.054Z,98257.98
2019-05-23T10:28:27.410Z,98251.38
2019-05-23T10:31:06.503Z,98244.78
2019-05-23T10:33:45.067Z,98244.45
2019-05-23T10:36:22.414Z,98244.72
2019-05-23T10:38:58.981Z,98237.27
2019-05-23T10:41:35.454Z,98236.45
2019-05-23T10:44:15.759Z,98226.50
2019-05-23T10:46:54.500Z,98222.93
2019-05-23T10:49:31.782Z,98222.63
2019-05-23T10:52:11.169Z,98222.89
2019-05-23T10:54:48.888Z,98208.05
2019-05-23T10:57:27.122Z,98206.38
2019-05-23T11:00:04.481Z,98204.41
2019-05-23T11:02:43.445Z,98200.00
2019-05-23T11:05:20.955Z,98202.17
2019-05-23T11:07:59.843Z,98205.47
2019-05-23T11:10:36.595Z,98214.50
2019-05-23T11:13:11.680Z,98209.80
2019-05-23T11:15:47.067Z,98203.20
2019-05-23T11:18:22.871Z,98200.97
2019-05-23T11:20:57.949Z,98200.41
2019-05-23T11:23:37.431Z,98209.69
2019-05-23T11:26:12.519Z,98204.47
2019-05-23T11:28:47.630Z,98196.47
2019-05-23T11:31:23.509Z,98203.05
2019-05-23T11:33:59.197Z,98203.05
2019-05-23T11:36:36.681Z,98196.16
2019-05-23T11:39:13.071Z,98191.98
2019-05-23T11:41:48.588Z,98198.30
2019-05-23T11:44:23.214Z,98188.38
2019-05-23T11:46:58.580Z,98183.97
2019-05-23T11:49:34.529Z,98174.58
2019-05-23T11:52:09.039Z,98174.83
2019-05-23T11:54:46.681Z,98168.77
2019-05-23T11:57:21.073Z,98169.31
2019-05-23T11:59:56.220Z,98169.28
2019-05-23T12:02:39.768Z,98176.97
2019-05-23T12:05:26.958Z,98180.53
2019-05-23T12:08:01.300Z,98172.83
2019-05-23T12:10:35.834Z,98173.34
2019-05-23T12:13:10.728Z,98164.26
2019-05-23T12:15:46.021Z,98168.62
2019-05-23T12:18:21.455Z,98162.88
2019-05-23T12:20:59.642Z,98166.92
2019-05-23T12:23:33.366Z,98168.01
2019-05-23T12:26:07.864Z,98178.17
2019-05-23T12:28:42.316Z,98177.86
2019-05-23T12:31:16.445Z,98177.86
2019-05-23T12:33:50.866Z,98183.59
2019-05-23T12:36:25.207Z,98190.17
2019-05-23T12:38:59.166Z,98201.73
2019-05-23T12:41:33.993Z,98210.49
2019-05-23T12:44:08.629Z,98212.95
2019-05-23T12:46:42.876Z,98207.23
2019-05-23T12:49:24.019Z,98216.52
2019-05-23T12:51:59.150Z,98213.70
2019-05-23T12:54:33.902Z,98213.70
2019-05-23T12:57:09.790Z,98217.00
2019-05-23T12:59:43.808Z,98214.52
2019-05-23T13:02:23.270Z,98214.52
2019-05-23T13:04:57.844Z,98213.33
2019-05-23T13:07:36.344Z,98213.33
2019-05-23T13:10:09.761Z,98209.47
2019-05-23T13:12:44.080Z,98215.48
2019-05-23T13:15:18.453Z,98220.10
2019-05-23T13:17:52.730Z,98218.78
2019-05-23T13:20:26.745Z,98211.33
2019-05-23T13:23:00.869Z,98227.80
2019-05-23T13:25:35.019Z,98231.86
2019-05-23T13:28:09.168Z,98229.38
2019-05-23T13:30:43.168Z,98235.16
2019-05-23T13:33:18.030Z,98231.54
2019-05-23T13:35:51.877Z,98224.14
2019-05-23T13:38:25.805Z,98222.71
2019-05-23T13:40:59.611Z,98213.62
2019-05-23T13:43:33.966Z,98200.66
2019-05-23T13:46:08.177Z,98192.94
2019-05-23T13:48:42.208Z,98200.06
2019-05-23T13:51:16.339Z,98216.83
2019-05-23T13:53:50.088Z,98216.83
2019-05-23T13:56:24.323Z,98232.23
2019-05-23T13:58:58.925Z,98246.52
2019-05-23T14:01:33.321Z,98268.81
2019-05-23T14:04:07.747Z,98295.48
2019-05-23T14:06:42.616Z,98329.60
2019-05-23T14:09:17.217Z,98439.73
2019-05-23T14:12:19.647Z,98472.73
2019-05-23T14:14:27.639Z,98471.05
2019-05-23T14:17:35.645Z,98478.99
2019-05-23T14:20:10.929Z,98472.62
2019-05-23T14:22:50.220Z,98469.28
2019-05-23T14:25:25.055Z,98457.42
2019-05-23T14:28:06.373Z,98453.30
2019-05-23T14:31:02.564Z,98438.38
2019-05-23T14:33:47.925Z,98479.15
2019-05-23T14:36:32.069Z,98452.41
2019-05-23T14:39:05.910Z,98447.41
2019-05-23T14:41:50.245Z,98446.01
2019-05-23T14:44:24.662Z,98437.74
2019-05-23T14:47:21.249Z,98429.45
2019-05-23T14:50:09.751Z,98417.63
2019-05-23T14:52:44.657Z,98409.36
2019-05-23T14:55:19.152Z,98425.02
2019-05-23T14:57:53.592Z,98431.34
2019-05-23T15:00:28.651Z,98459.73
2019-05-23T15:03:02.672Z,98471.03
2019-05-23T15:05:37.358Z,98488.08
2019-05-23T15:08:11.533Z,98498.83
2019-05-23T15:10:47.082Z,98506.80
2019-05-23T15:13:21.349Z,98505.42
2019-05-23T15:15:55.703Z,98526.36
2019-05-23T15:18:29.822Z,98541.52
2019-05-23T15:21:03.848Z,98563.84
2019-05-23T15:23:38.098Z,98584.22
2019-05-23T15:26:22.455Z,98589.16
2019-05-23T15:28:47.625Z,98591.92
2019-05-23T15:31:21.987Z,98601.84
2019-05-23T15:33:56.300Z,98620.56
2019-05-23T15:36:30.518Z,98632.39
2019-05-23T15:39:09.341Z,98631.30
2019-05-23T15:41:40.607Z,98636.81
2019-05-23T15:44:25.453Z,98632.95
2019-05-23T15:46:51.113Z,98640.92
2019-05-23T15:49:25.547Z,98638.16
2019-05-23T15:52:10.780Z,98621.06
2019-05-23T15:54:55.161Z,98601.47
2019-05-23T15:57:40.947Z,98609.48
2019-05-23T16:00:32.386Z,98604.48
2019-05-23T16:03:14.234Z,98589.89
2019-05-23T16:05:48.532Z,98605.56
2019-05-23T16:08:23.157Z,98585.16
2019-05-23T16:10:57.597Z,98554.82
2019-05-23T16:13:31.981Z,98536.90
2019-05-23T16:16:06.127Z,98509.04
2019-05-23T16:18:40.659Z,98497.14
2019-05-23T16:21:15.566Z,98495.23
2019-05-23T16:23:49.934Z,98515.03
2019-05-23T16:26:23.931Z,98514.47
2019-05-23T16:28:58.238Z,98527.12
2019-05-23T16:31:32.117Z,98533.45
2019-05-23T16:34:06.752Z,98537.05
2019-05-23T16:36:40.719Z,98537.05
2019-05-23T16:39:15.203Z,98541.72
2019-05-23T16:41:49.149Z,98533.42
2019-05-23T16:44:23.385Z,98519.61
2019-05-23T16:46:57.654Z,98528.45
2019-05-23T16:49:31.901Z,98541.09
2019-05-23T16:52:06.186Z,98575.03
2019-05-23T16:54:44.480Z,98608.36
2019-05-23T16:57:37.328Z,98643.09
2019-05-23T17:00:43.744Z,98667.91
2019-05-23T17:03:24.975Z,98650.80
2019-05-23T17:06:14.127Z,98627.64
2019-05-23T17:09:13.648Z,98627.64
2019-05-23T17:12:02.860Z,98588.44
2019-05-23T17:14:45.292Z,98553.42
2019-05-23T17:18:00.111Z,98542.39
2019-05-23T17:20:40.139Z,98536.02
2019-05-23T17:23:33.344Z,98531.31
2019-05-23T17:26:29.336Z,98510.38
2019-05-23T17:29:05.289Z,98476.16
2019-05-23T17:31:40.569Z,98470.09
2019-05-23T17:34:15.096Z,98462.09
2019-05-23T17:36:49.213Z,98457.95
2019-05-23T17:39:25.317Z,98473.12
2019-05-23T17:41:59.430Z,98511.44
2019-05-23T17:44:33.676Z,98539.02
2019-05-23T17:47:08.291Z,98544.77
2019-05-23T17:49:42.596Z,98527.69
2019-05-23T17:52:17.149Z,98508.62
2019-05-23T17:54:51.811Z,98495.94
2019-05-23T17:57:26.311Z,98458.13
2019-05-23T18:00:00.546Z,98422.52
2019-05-23T18:02:34.892Z,98402.41
2019-05-23T18:05:09.784Z,98387.23
2019-05-23T18:07:45.267Z,98398.56
2019-05-23T18:10:19.914Z,98411.48
2019-05-23T18:12:54.279Z,98404.59
2019-05-23T18:15:28.714Z,98390.80
2019-05-23T18:18:03.607Z,98389.95
2019-05-23T18:20:39.720Z,98397.92
2019-05-23T18:23:14.415Z,98400.42
2019-05-23T18:25:49.138Z,98410.91
2019-05-23T18:28:23.662Z,98408.39
2019-05-23T18:31:06.005Z,98404.83
2019-05-23T18:33:37.705Z,98398.73
2019-05-23T18:36:12.123Z,98393.22
2019-05-23T18:38:46.325Z,98396.55
2019-05-23T18:41:20.365Z,98402.88
2019-05-23T18:43:55.352Z,98400.12
2019-05-23T18:46:37.735Z,98393.75
2019-05-23T18:49:11.987Z,98402.03
2019-05-23T18:51:46.148Z,98401.45
2019-05-23T18:54:20.672Z,98392.37
2019-05-23T18:56:54.799Z,98394.02
2019-05-23T18:59:29.744Z,98390.70
2019-05-23T19:02:03.776Z,98374.95
2019-05-23T19:04:38.198Z,98370.81
2019-05-23T19:07:12.677Z,98374.41
2019-05-23T19:09:46.991Z,98371.89
2019-05-23T19:12:21.064Z,98369.13
2019-05-23T19:14:55.190Z,98366.38
2019-05-23T19:17:29.608Z,98351.47
2019-05-23T19:20:04.648Z,98350.66
2019-05-23T19:22:39.927Z,98349.52
2019-05-23T19:25:14.278Z,98345.38
2019-05-23T19:27:48.843Z,98347.33
2019-05-23T19:30:23.083Z,98349.78
2019-05-23T19:32:57.815Z,98351.43
2019-05-23T19:35:32.024Z,98346.48
2019-05-23T19:38:06.781Z,98356.95
2019-05-23T19:40:41.323Z,98354.45
2019-05-23T19:43:16.535Z,98372.39
2019-05-23T19:45:50.546Z,98372.13
2019-05-23T19:48:24.839Z,98378.45
2019-05-23T19:50:58.940Z,98372.93
2019-05-23T19:53:33.382Z,98369.63
2019-05-23T19:56:09.226Z,98373.77
2019-05-23T19:58:43.620Z,98378.14
2019-05-23T20:01:19.200Z,98378.14
2019-05-23T20:03:53.293Z,98372.63
2019-05-23T20:06:27.574Z,98374.00
2019-05-23T20:09:02.403Z,98378.41
2019-05-23T20:11:53.358Z,98379.79
2019-05-23T20:14:13.853Z,98381.44
2019-05-23T20:16:47.650Z,98373.97
2019-05-23T20:19:21.750Z,98375.08
2019-05-23T20:21:56.689Z,98384.50
2019-05-23T20:24:31.187Z,98394.39
2019-05-23T20:27:05.114Z,98411.22
2019-05-23T20:29:39.310Z,98389.14
2019-05-23T20:32:13.299Z,98361.82
2019-05-23T20:34:47.389Z,98355.46
2019-05-23T20:37:23.470Z,98355.46
2019-05-23T20:39:57.599Z,98360.98
2019-05-23T20:42:31.700Z,98373.66
2019-05-23T20:45:05.903Z,98368.14
2019-05-23T20:47:39.907Z,98356.30
2019-05-23T20:50:16.167Z,98344.69
2019-05-23T20:52:50.167Z,98351.59
2019-05-23T20:55:25.010Z,98356.57
2019-05-23T20:57:59.440Z,98357.95
2019-05-23T21:00:55.898Z,98357.95
2019-05-23T21:03:30.775Z,98359.87
2019-05-23T21:06:05.411Z,98356.00
2019-05-23T21:08:40.117Z,98359.33
2019-05-23T21:11:14.442Z,98358.75
2019-05-23T21:13:48.674Z,98371.98
2019-05-23T21:16:22.967Z,98367.03
2019-05-23T21:18:57.072Z,98366.46
2019-05-23T21:21:31.280Z,98362.33
2019-05-23T21:24:05.414Z,98364.54
2019-05-23T21:26:40.025Z,98365.08
2019-05-23T21:29:14.452Z,98362.89
2019-05-23T21:31:48.998Z,98357.38
2019-05-23T21:34:23.119Z,98354.89
2019-05-23T21:36:57.370Z,98353.51
2019-05-23T21:39:31.616Z,98356.80
2019-05-23T21:42:05.960Z,98360.95
2019-05-23T21:44:40.160Z,98364.27
2019-05-23T21:47:14.439Z,98350.48
2019-05-23T21:49:48.344Z,98361.78
2019-05-23T21:52:22.166Z,98365.92
2019-05-23T21:54:56.172Z,98372.25
2019-05-23T21:57:30.207Z,98367.30
2019-05-23T22:00:04.331Z,98363.70
2019-05-23T22:02:40.028Z,98379.95
2019-05-23T22:05:17.076Z,98391.56
2019-05-23T22:07:51.323Z,98390.48
2019-05-23T22:10:25.466Z,98395.70
2019-05-23T22:13:04.541Z,98403.41
2019-05-23T22:15:40.163Z,98410.30
2019-05-23T22:18:14.206Z,98402.59
2019-05-23T22:20:48.376Z,98408.92
2019-05-23T22:23:22.642Z,98413.06
2019-05-23T22:25:56.830Z,98419.42
2019-05-23T22:28:31.137Z,98431.56
2019-05-23T22:31:05.344Z,98431.56
2019-05-23T22:33:42.421Z,98437.09
2019-05-23T22:36:17.861Z,98434.59
2019-05-23T22:38:51.953Z,98438.73
2019-05-23T22:41:25.992Z,98438.47
2019-05-23T22:44:00.139Z,98439.27
2019-05-23T22:46:34.740Z,98436.52
2019-05-23T22:49:08.853Z,98445.63
2019-05-23T22:51:43.163Z,98458.86
2019-05-23T22:54:17.467Z,98459.97
2019-05-23T22:56:51.701Z,98460.54
2019-05-23T22:59:27.076Z,98448.93
2019-05-23T23:02:01.127Z,98443.98
2019-05-23T23:04:35.223Z,98458.86
2019-05-23T23:07:09.377Z,98465.48
2019-05-23T23:09:43.816Z,98455.83
2019-05-23T23:12:18.125Z,98437.89
2019-05-23T23:14:53.251Z,98437.66
2019-05-23T23:17:27.468Z,98440.66
2019-05-23T23:20:02.711Z,98436.52
2019-05-23T23:22:37.035Z,98443.41
2019-05-23T23:25:11.122Z,98456.67
2019-05-23T23:27:48.501Z,98463.30
2019-05-23T23:30:27.235Z,98470.77
2019-05-23T23:33:01.280Z,98478.74
2019-05-23T23:35:35.549Z,98470.20
2019-05-23T23:38:10.181Z,98468.25
2019-05-23T23:40:44.065Z,98472.39
2019-05-23T23:43:18.412Z,98466.63
2019-05-23T23:46:09.693Z,98461.11
2019-05-23T23:49:01.149Z,98461.34
2019-05-23T23:51:52.580Z,98453.64
2019-05-23T23:54:44.393Z,98458.35
2019-05-23T23:57:35.398Z,98466.63
